sensor_id;sensor_type;location;lat;lon;timestamp;temperature;humidity
61807;DHT22;47726;52.766;6.606;2023-05-10T00:02:06;14.30;99.90
61807;DHT22;47726;52.766;6.606;2023-05-10T00:04:32;14.30;99.90
61807;DHT22;47726;52.766;6.606;2023-05-10T00:06:57;14.20;99.90
61807;DHT22;47726;52.766;6.606;2023-05-10T00:09:23;14.20;99.90
61807;DHT22;47726;52.766;6.606;2023-05-10T00:11:49;14.20;99.90
61807;DHT22;47726;52.766;6.606;2023-05-10T00:14:14;14.20;99.90
61807;DHT22;47726;52.766;6.606;2023-05-10T00:16:40;14.20;99.90
61807;DHT22;47726;52.766;6.606;2023-05-10T00:19:06;14.20;99.90
61807;DHT22;47726;52.766;6.606;2023-05-10T00:21:31;14.10;99.90
61807;DHT22;47726;52.766;6.606;2023-05-10T00:23:59;14.10;99.90
61807;DHT22;47726;52.766;6.606;2023-05-10T00:26:24;14.10;99.90
61807;DHT22;47726;52.766;6.606;2023-05-10T00:28:50;14.10;99.90
61807;DHT22;47726;52.766;6.606;2023-05-10T00:31:16;14.10;99.90
61807;DHT22;47726;52.766;6.606;2023-05-10T00:33:41;14.10;99.90
61807;DHT22;47726;52.766;6.606;2023-05-10T00:36:07;14.10;99.90
61807;DHT22;47726;52.766;6.606;2023-05-10T00:38:33;14.10;99.90
61807;DHT22;47726;52.766;6.606;2023-05-10T00:40:59;14.00;99.90
61807;DHT22;47726;52.766;6.606;2023-05-10T00:43:24;14.00;99.90
61807;DHT22;47726;52.766;6.606;2023-05-10T00:45:50;14.00;99.90
61807;DHT22;47726;52.766;6.606;2023-05-10T00:48:16;14.00;99.90
61807;DHT22;47726;52.766;6.606;2023-05-10T00:50:41;14.00;99.90
61807;DHT22;47726;52.766;6.606;2023-05-10T00:53:08;14.00;99.90
61807;DHT22;47726;52.766;6.606;2023-05-10T00:55:34;13.90;99.90
61807;DHT22;47726;52.766;6.606;2023-05-10T00:58:00;14.00;99.90
61807;DHT22;47726;52.766;6.606;2023-05-10T01:00:25;13.90;99.90
61807;DHT22;47726;52.766;6.606;2023-05-10T01:02:53;13.90;99.90
61807;DHT22;47726;52.766;6.606;2023-05-10T01:05:19;13.90;99.90
61807;DHT22;47726;52.766;6.606;2023-05-10T01:07:44;13.90;99.90
61807;DHT22;47726;52.766;6.606;2023-05-10T01:10:10;13.90;99.90
61807;DHT22;47726;52.766;6.606;2023-05-10T01:12:38;13.90;99.90
61807;DHT22;47726;52.766;6.606;2023-05-10T01:15:06;13.80;99.90
61807;DHT22;47726;52.766;6.606;2023-05-10T01:17:34;13.80;99.90
61807;DHT22;47726;52.766;6.606;2023-05-10T01:20:01;13.80;99.90
61807;DHT22;47726;52.766;6.606;2023-05-10T01:23:10;13.80;99.90
61807;DHT22;47726;52.766;6.606;2023-05-10T01:26:13;13.80;99.90
61807;DHT22;47726;52.766;6.606;2023-05-10T01:29:05;13.80;99.90
61807;DHT22;47726;52.766;6.606;2023-05-10T01:31:59;13.80;99.90
61807;DHT22;47726;52.766;6.606;2023-05-10T01:34:59;13.80;99.90
61807;DHT22;47726;52.766;6.606;2023-05-10T01:37:39;13.80;99.90
61807;DHT22;47726;52.766;6.606;2023-05-10T01:40:30;13.80;99.90
61807;DHT22;47726;52.766;6.606;2023-05-10T01:43:01;13.80;99.90
61807;DHT22;47726;52.766;6.606;2023-05-10T01:45:32;13.80;99.90
61807;DHT22;47726;52.766;6.606;2023-05-10T01:48:06;13.80;99.90
61807;DHT22;47726;52.766;6.606;2023-05-10T01:50:32;13.80;99.90
61807;DHT22;47726;52.766;6.606;2023-05-10T01:53:00;13.80;99.90
61807;DHT22;47726;52.766;6.606;2023-05-10T01:55:30;13.80;99.90
61807;DHT22;47726;52.766;6.606;2023-05-10T01:58:04;13.80;99.90
61807;DHT22;47726;52.766;6.606;2023-05-10T02:00:31;13.80;99.90
61807;DHT22;47726;52.766;6.606;2023-05-10T02:03:00;13.80;99.90
61807;DHT22;47726;52.766;6.606;2023-05-10T02:05:28;13.70;99.90
61807;DHT22;47726;52.766;6.606;2023-05-10T02:07:56;13.70;99.90
61807;DHT22;47726;52.766;6.606;2023-05-10T02:10:23;13.70;99.90
61807;DHT22;47726;52.766;6.606;2023-05-10T02:12:50;13.70;99.90
61807;DHT22;47726;52.766;6.606;2023-05-10T02:15:20;13.70;99.90
61807;DHT22;47726;52.766;6.606;2023-05-10T02:17:46;13.60;99.90
61807;DHT22;47726;52.766;6.606;2023-05-10T02:20:12;13.70;99.90
61807;DHT22;47726;52.766;6.606;2023-05-10T02:22:40;13.60;99.90
61807;DHT22;47726;52.766;6.606;2023-05-10T02:25:08;13.70;99.90
61807;DHT22;47726;52.766;6.606;2023-05-10T02:27:35;13.70;99.90
61807;DHT22;47726;52.766;6.606;2023-05-10T02:30:02;13.60;99.90
61807;DHT22;47726;52.766;6.606;2023-05-10T02:32:29;13.60;99.90
61807;DHT22;47726;52.766;6.606;2023-05-10T02:34:55;13.60;99.90
61807;DHT22;47726;52.766;6.606;2023-05-10T02:37:22;13.60;99.90
61807;DHT22;47726;52.766;6.606;2023-05-10T02:39:50;13.60;99.90
61807;DHT22;47726;52.766;6.606;2023-05-10T02:42:18;13.60;99.90
61807;DHT22;47726;52.766;6.606;2023-05-10T02:44:50;13.60;99.90
61807;DHT22;47726;52.766;6.606;2023-05-10T02:47:16;13.60;99.90
61807;DHT22;47726;52.766;6.606;2023-05-10T02:49:43;13.60;99.90
61807;DHT22;47726;52.766;6.606;2023-05-10T02:52:09;13.60;99.90
61807;DHT22;47726;52.766;6.606;2023-05-10T02:54:43;13.60;99.90
61807;DHT22;47726;52.766;6.606;2023-05-10T02:57:11;13.60;99.90
61807;DHT22;47726;52.766;6.606;2023-05-10T02:59:40;13.60;99.90
61807;DHT22;47726;52.766;6.606;2023-05-10T03:02:08;13.50;99.90
61807;DHT22;47726;52.766;6.606;2023-05-10T03:04:34;13.50;99.90
61807;DHT22;47726;52.766;6.606;2023-05-10T03:07:01;13.50;99.90
61807;DHT22;47726;52.766;6.606;2023-05-10T03:09:26;13.40;99.90
61807;DHT22;47726;52.766;6.606;2023-05-10T03:12:10;13.40;99.90
61807;DHT22;47726;52.766;6.606;2023-05-10T03:17:15;13.40;99.90
61807;DHT22;47726;52.766;6.606;2023-05-10T03:19:50;13.40;99.90
61807;DHT22;47726;52.766;6.606;2023-05-10T03:22:29;13.50;99.90
61807;DHT22;47726;52.766;6.606;2023-05-10T03:24:56;13.40;99.90
61807;DHT22;47726;52.766;6.606;2023-05-10T03:27:24;13.40;99.90
61807;DHT22;47726;52.766;6.606;2023-05-10T03:29:51;13.40;99.90
61807;DHT22;47726;52.766;6.606;2023-05-10T03:32:18;13.40;99.90
61807;DHT22;47726;52.766;6.606;2023-05-10T03:34:43;13.40;99.90
61807;DHT22;47726;52.766;6.606;2023-05-10T03:37:09;13.40;99.90
61807;DHT22;47726;52.766;6.606;2023-05-10T03:39:35;13.40;99.90
61807;DHT22;47726;52.766;6.606;2023-05-10T03:42:00;13.40;99.90
61807;DHT22;47726;52.766;6.606;2023-05-10T03:44:26;13.40;99.90
61807;DHT22;47726;52.766;6.606;2023-05-10T03:46:51;13.30;99.90
61807;DHT22;47726;52.766;6.606;2023-05-10T03:49:18;13.40;99.90
61807;DHT22;47726;52.766;6.606;2023-05-10T03:51:43;13.40;99.90
61807;DHT22;47726;52.766;6.606;2023-05-10T03:54:09;13.40;99.90
61807;DHT22;47726;52.766;6.606;2023-05-10T03:56:34;13.40;99.90
61807;DHT22;47726;52.766;6.606;2023-05-10T03:59:00;13.40;99.90
61807;DHT22;47726;52.766;6.606;2023-05-10T04:01:26;13.40;99.90
61807;DHT22;47726;52.766;6.606;2023-05-10T04:03:51;13.40;99.90
61807;DHT22;47726;52.766;6.606;2023-05-10T04:06:17;13.40;99.90
61807;DHT22;47726;52.766;6.606;2023-05-10T04:08:42;13.40;99.90
61807;DHT22;47726;52.766;6.606;2023-05-10T04:11:09;13.40;99.90
61807;DHT22;47726;52.766;6.606;2023-05-10T04:13:35;13.40;99.90
61807;DHT22;47726;52.766;6.606;2023-05-10T04:16:01;13.40;99.90
61807;DHT22;47726;52.766;6.606;2023-05-10T04:18:27;13.40;99.90
61807;DHT22;47726;52.766;6.606;2023-05-10T04:20:52;13.40;99.90
61807;DHT22;47726;52.766;6.606;2023-05-10T04:23:18;13.40;99.90
61807;DHT22;47726;52.766;6.606;2023-05-10T04:25:43;13.40;99.90
61807;DHT22;47726;52.766;6.606;2023-05-10T04:28:09;13.40;99.90
61807;DHT22;47726;52.766;6.606;2023-05-10T04:30:35;13.40;99.90
61807;DHT22;47726;52.766;6.606;2023-05-10T04:33:01;13.30;99.90
61807;DHT22;47726;52.766;6.606;2023-05-10T04:35:30;13.30;99.90
61807;DHT22;47726;52.766;6.606;2023-05-10T04:37:55;13.30;99.90
61807;DHT22;47726;52.766;6.606;2023-05-10T04:40:21;13.30;99.90
61807;DHT22;47726;52.766;6.606;2023-05-10T04:42:46;13.30;99.90
61807;DHT22;47726;52.766;6.606;2023-05-10T04:45:12;13.20;99.90
61807;DHT22;47726;52.766;6.606;2023-05-10T04:47:39;13.20;99.90
61807;DHT22;47726;52.766;6.606;2023-05-10T04:50:05;13.30;99.90
61807;DHT22;47726;52.766;6.606;2023-05-10T04:52:31;13.20;99.90
61807;DHT22;47726;52.766;6.606;2023-05-10T04:54:57;13.20;99.90
61807;DHT22;47726;52.766;6.606;2023-05-10T04:57:23;13.20;99.90
61807;DHT22;47726;52.766;6.606;2023-05-10T04:59:48;13.30;99.90
61807;DHT22;47726;52.766;6.606;2023-05-10T05:02:14;13.30;99.90
61807;DHT22;47726;52.766;6.606;2023-05-10T05:04:39;13.30;99.90
61807;DHT22;47726;52.766;6.606;2023-05-10T05:07:05;13.30;99.90
61807;DHT22;47726;52.766;6.606;2023-05-10T05:09:30;13.30;99.90
61807;DHT22;47726;52.766;6.606;2023-05-10T05:11:57;13.30;99.90
61807;DHT22;47726;52.766;6.606;2023-05-10T05:14:23;13.20;99.90
61807;DHT22;47726;52.766;6.606;2023-05-10T05:16:53;13.20;99.90
61807;DHT22;47726;52.766;6.606;2023-05-10T05:19:19;13.20;99.90
61807;DHT22;47726;52.766;6.606;2023-05-10T05:21:45;13.20;99.90
61807;DHT22;47726;52.766;6.606;2023-05-10T05:24:10;13.20;99.90
61807;DHT22;47726;52.766;6.606;2023-05-10T05:26:38;13.20;99.90
61807;DHT22;47726;52.766;6.606;2023-05-10T05:29:03;13.20;99.90
61807;DHT22;47726;52.766;6.606;2023-05-10T05:31:29;13.20;99.90
61807;DHT22;47726;52.766;6.606;2023-05-10T05:33:55;13.20;99.90
61807;DHT22;47726;52.766;6.606;2023-05-10T05:36:21;13.20;99.90
61807;DHT22;47726;52.766;6.606;2023-05-10T05:38:47;13.20;99.90
61807;DHT22;47726;52.766;6.606;2023-05-10T05:41:13;13.20;99.90
61807;DHT22;47726;52.766;6.606;2023-05-10T05:43:38;13.20;99.90
61807;DHT22;47726;52.766;6.606;2023-05-10T05:46:04;13.20;99.90
61807;DHT22;47726;52.766;6.606;2023-05-10T05:48:30;13.20;99.90
61807;DHT22;47726;52.766;6.606;2023-05-10T05:50:56;13.20;99.90
61807;DHT22;47726;52.766;6.606;2023-05-10T05:53:22;13.20;99.90
61807;DHT22;47726;52.766;6.606;2023-05-10T05:55:56;13.20;99.90
61807;DHT22;47726;52.766;6.606;2023-05-10T05:58:22;13.20;99.90
61807;DHT22;47726;52.766;6.606;2023-05-10T06:00:48;13.30;99.90
61807;DHT22;47726;52.766;6.606;2023-05-10T06:03:13;13.30;99.90
61807;DHT22;47726;52.766;6.606;2023-05-10T06:05:39;13.30;99.90
61807;DHT22;47726;52.766;6.606;2023-05-10T06:08:05;13.30;99.90
61807;DHT22;47726;52.766;6.606;2023-05-10T06:10:30;13.30;99.90
61807;DHT22;47726;52.766;6.606;2023-05-10T06:12:56;13.30;99.90
61807;DHT22;47726;52.766;6.606;2023-05-10T06:15:22;13.30;99.90
61807;DHT22;47726;52.766;6.606;2023-05-10T06:17:47;13.30;99.90
61807;DHT22;47726;52.766;6.606;2023-05-10T06:20:15;13.30;99.90
61807;DHT22;47726;52.766;6.606;2023-05-10T06:22:41;13.40;99.90
61807;DHT22;47726;52.766;6.606;2023-05-10T06:25:07;13.40;99.90
61807;DHT22;47726;52.766;6.606;2023-05-10T06:27:33;13.40;99.90
61807;DHT22;47726;52.766;6.606;2023-05-10T06:29:58;13.50;99.90
61807;DHT22;47726;52.766;6.606;2023-05-10T06:32:24;13.50;99.90
61807;DHT22;47726;52.766;6.606;2023-05-10T06:34:50;13.50;99.90
61807;DHT22;47726;52.766;6.606;2023-05-10T06:37:15;13.50;99.90
61807;DHT22;47726;52.766;6.606;2023-05-10T06:39:41;13.50;99.90
61807;DHT22;47726;52.766;6.606;2023-05-10T06:42:06;13.50;99.90
61807;DHT22;47726;52.766;6.606;2023-05-10T06:44:32;13.50;99.90
61807;DHT22;47726;52.766;6.606;2023-05-10T06:46:58;13.60;99.90
61807;DHT22;47726;52.766;6.606;2023-05-10T06:49:23;13.60;99.90
61807;DHT22;47726;52.766;6.606;2023-05-10T06:51:49;13.60;99.90
61807;DHT22;47726;52.766;6.606;2023-05-10T06:54:14;13.70;99.90
61807;DHT22;47726;52.766;6.606;2023-05-10T06:56:40;13.70;99.90
61807;DHT22;47726;52.766;6.606;2023-05-10T06:59:05;13.70;99.90
61807;DHT22;47726;52.766;6.606;2023-05-10T07:01:31;13.80;99.90
61807;DHT22;47726;52.766;6.606;2023-05-10T07:03:57;13.80;99.90
61807;DHT22;47726;52.766;6.606;2023-05-10T07:06:22;13.80;99.90
61807;DHT22;47726;52.766;6.606;2023-05-10T07:08:48;13.70;99.90
61807;DHT22;47726;52.766;6.606;2023-05-10T07:11:14;13.80;99.90
61807;DHT22;47726;52.766;6.606;2023-05-10T07:13:39;13.80;99.90
61807;DHT22;47726;52.766;6.606;2023-05-10T07:16:09;13.80;99.90
61807;DHT22;47726;52.766;6.606;2023-05-10T07:18:35;13.80;99.90
61807;DHT22;47726;52.766;6.606;2023-05-10T07:21:01;13.80;99.90
61807;DHT22;47726;52.766;6.606;2023-05-10T07:23:26;13.80;99.90
61807;DHT22;47726;52.766;6.606;2023-05-10T07:25:52;13.70;99.90
61807;DHT22;47726;52.766;6.606;2023-05-10T07:28:18;13.70;99.90
61807;DHT22;47726;52.766;6.606;2023-05-10T07:30:44;13.70;99.90
61807;DHT22;47726;52.766;6.606;2023-05-10T07:33:13;13.70;99.90
61807;DHT22;47726;52.766;6.606;2023-05-10T07:35:39;13.70;99.90
61807;DHT22;47726;52.766;6.606;2023-05-10T07:38:04;13.80;99.90
61807;DHT22;47726;52.766;6.606;2023-05-10T07:40:30;13.80;99.90
61807;DHT22;47726;52.766;6.606;2023-05-10T07:42:56;13.80;99.90
61807;DHT22;47726;52.766;6.606;2023-05-10T07:45:22;13.90;99.90
61807;DHT22;47726;52.766;6.606;2023-05-10T07:47:48;13.90;99.90
61807;DHT22;47726;52.766;6.606;2023-05-10T07:50:14;13.90;99.90
61807;DHT22;47726;52.766;6.606;2023-05-10T07:52:40;13.90;99.90
61807;DHT22;47726;52.766;6.606;2023-05-10T07:55:06;13.90;99.90
61807;DHT22;47726;52.766;6.606;2023-05-10T07:57:33;13.90;99.90
61807;DHT22;47726;52.766;6.606;2023-05-10T07:59:59;14.00;99.90
61807;DHT22;47726;52.766;6.606;2023-05-10T08:02:25;14.00;99.90
61807;DHT22;47726;52.766;6.606;2023-05-10T08:04:50;14.00;99.90
61807;DHT22;47726;52.766;6.606;2023-05-10T08:07:16;14.10;99.90
61807;DHT22;47726;52.766;6.606;2023-05-10T08:09:42;14.10;99.90
61807;DHT22;47726;52.766;6.606;2023-05-10T08:12:08;14.10;99.90
61807;DHT22;47726;52.766;6.606;2023-05-10T08:14:34;14.10;99.90
61807;DHT22;47726;52.766;6.606;2023-05-10T08:17:00;14.20;99.90
61807;DHT22;47726;52.766;6.606;2023-05-10T08:19:25;14.20;99.90
61807;DHT22;47726;52.766;6.606;2023-05-10T08:21:51;14.20;99.90
61807;DHT22;47726;52.766;6.606;2023-05-10T08:24:18;14.30;99.90
61807;DHT22;47726;52.766;6.606;2023-05-10T08:26:44;14.30;99.90
61807;DHT22;47726;52.766;6.606;2023-05-10T08:29:10;14.30;99.90
61807;DHT22;47726;52.766;6.606;2023-05-10T08:31:35;14.30;99.90
61807;DHT22;47726;52.766;6.606;2023-05-10T08:34:01;14.30;99.90
61807;DHT22;47726;52.766;6.606;2023-05-10T08:36:26;14.40;99.90
61807;DHT22;47726;52.766;6.606;2023-05-10T08:38:53;14.40;99.90
61807;DHT22;47726;52.766;6.606;2023-05-10T08:41:20;14.40;99.90
61807;DHT22;47726;52.766;6.606;2023-05-10T08:43:46;14.50;99.90
61807;DHT22;47726;52.766;6.606;2023-05-10T08:46:17;14.50;99.90
61807;DHT22;47726;52.766;6.606;2023-05-10T08:48:47;14.50;99.90
61807;DHT22;47726;52.766;6.606;2023-05-10T08:51:14;14.50;99.90
61807;DHT22;47726;52.766;6.606;2023-05-10T08:53:42;14.50;99.90
61807;DHT22;47726;52.766;6.606;2023-05-10T08:56:08;14.50;99.90
61807;DHT22;47726;52.766;6.606;2023-05-10T08:58:34;14.50;99.90
61807;DHT22;47726;52.766;6.606;2023-05-10T09:01:00;14.50;99.90
61807;DHT22;47726;52.766;6.606;2023-05-10T09:03:26;14.50;99.90
61807;DHT22;47726;52.766;6.606;2023-05-10T09:05:52;14.60;99.90
61807;DHT22;47726;52.766;6.606;2023-05-10T09:08:18;14.60;99.90
61807;DHT22;47726;52.766;6.606;2023-05-10T09:10:44;14.70;99.90
61807;DHT22;47726;52.766;6.606;2023-05-10T09:13:13;14.70;99.90
61807;DHT22;47726;52.766;6.606;2023-05-10T09:15:39;14.70;99.90
61807;DHT22;47726;52.766;6.606;2023-05-10T09:18:05;14.70;99.90
61807;DHT22;47726;52.766;6.606;2023-05-10T09:20:30;14.70;99.90
61807;DHT22;47726;52.766;6.606;2023-05-10T09:22:56;14.70;99.90
61807;DHT22;47726;52.766;6.606;2023-05-10T09:25:22;14.70;99.90
61807;DHT22;47726;52.766;6.606;2023-05-10T09:27:48;14.70;99.90
61807;DHT22;47726;52.766;6.606;2023-05-10T09:30:27;14.70;99.90
61807;DHT22;47726;52.766;6.606;2023-05-10T09:32:54;14.70;99.90
61807;DHT22;47726;52.766;6.606;2023-05-10T09:35:25;14.70;99.90
61807;DHT22;47726;52.766;6.606;2023-05-10T09:37:53;14.70;99.90
61807;DHT22;47726;52.766;6.606;2023-05-10T09:40:21;14.80;99.90
61807;DHT22;47726;52.766;6.606;2023-05-10T09:42:58;14.80;99.90
61807;DHT22;47726;52.766;6.606;2023-05-10T09:45:28;14.90;99.90
61807;DHT22;47726;52.766;6.606;2023-05-10T09:47:54;14.90;99.90
61807;DHT22;47726;52.766;6.606;2023-05-10T09:50:21;15.00;99.90
61807;DHT22;47726;52.766;6.606;2023-05-10T09:53:01;15.00;99.90
61807;DHT22;47726;52.766;6.606;2023-05-10T09:55:45;15.10;99.90
61807;DHT22;47726;52.766;6.606;2023-05-10T09:58:14;15.10;99.90
61807;DHT22;47726;52.766;6.606;2023-05-10T10:00:42;15.20;99.90
61807;DHT22;47726;52.766;6.606;2023-05-10T10:03:19;15.30;99.90
61807;DHT22;47726;52.766;6.606;2023-05-10T10:05:46;15.40;99.90
61807;DHT22;47726;52.766;6.606;2023-05-10T10:08:12;15.50;99.90
61807;DHT22;47726;52.766;6.606;2023-05-10T10:10:39;15.50;99.90
61807;DHT22;47726;52.766;6.606;2023-05-10T10:13:09;15.50;99.90
61807;DHT22;47726;52.766;6.606;2023-05-10T10:15:35;15.50;99.90
61807;DHT22;47726;52.766;6.606;2023-05-10T10:18:01;15.50;99.90
61807;DHT22;47726;52.766;6.606;2023-05-10T10:20:29;15.50;99.90
61807;DHT22;47726;52.766;6.606;2023-05-10T10:22:55;15.50;99.90
61807;DHT22;47726;52.766;6.606;2023-05-10T10:25:21;15.50;99.90
61807;DHT22;47726;52.766;6.606;2023-05-10T10:30:41;15.50;99.90
61807;DHT22;47726;52.766;6.606;2023-05-10T10:36:02;15.50;99.90
61807;DHT22;47726;52.766;6.606;2023-05-10T10:38:55;15.60;99.90
61807;DHT22;47726;52.766;6.606;2023-05-10T10:41:37;15.60;99.90
61807;DHT22;47726;52.766;6.606;2023-05-10T10:49:24;15.70;99.90
61807;DHT22;47726;52.766;6.606;2023-05-10T10:52:12;15.70;99.90
61807;DHT22;47726;52.766;6.606;2023-05-10T10:54:38;15.80;99.90
61807;DHT22;47726;52.766;6.606;2023-05-10T10:57:14;15.70;99.90
61807;DHT22;47726;52.766;6.606;2023-05-10T10:59:43;15.80;99.90
61807;DHT22;47726;52.766;6.606;2023-05-10T11:02:09;15.90;99.90
61807;DHT22;47726;52.766;6.606;2023-05-10T11:04:42;15.90;99.90
61807;DHT22;47726;52.766;6.606;2023-05-10T11:07:18;15.90;99.90
61807;DHT22;47726;52.766;6.606;2023-05-10T11:09:46;15.90;99.90
61807;DHT22;47726;52.766;6.606;2023-05-10T11:12:12;16.00;99.90
61807;DHT22;47726;52.766;6.606;2023-05-10T11:14:37;16.00;99.90
61807;DHT22;47726;52.766;6.606;2023-05-10T11:17:23;16.10;99.90
61807;DHT22;47726;52.766;6.606;2023-05-10T11:20:09;16.10;99.90
61807;DHT22;47726;52.766;6.606;2023-05-10T11:22:54;16.10;99.90
61807;DHT22;47726;52.766;6.606;2023-05-10T11:25:25;16.10;99.90
61807;DHT22;47726;52.766;6.606;2023-05-10T11:27:51;16.10;99.90
61807;DHT22;47726;52.766;6.606;2023-05-10T11:30:17;16.10;99.90
61807;DHT22;47726;52.766;6.606;2023-05-10T11:32:43;16.10;99.90
61807;DHT22;47726;52.766;6.606;2023-05-10T11:35:10;16.10;99.90
61807;DHT22;47726;52.766;6.606;2023-05-10T11:37:37;16.10;99.90
61807;DHT22;47726;52.766;6.606;2023-05-10T11:40:07;16.10;99.90
61807;DHT22;47726;52.766;6.606;2023-05-10T11:42:39;16.10;99.90
61807;DHT22;47726;52.766;6.606;2023-05-10T11:45:05;16.10;99.90
61807;DHT22;47726;52.766;6.606;2023-05-10T11:47:31;16.10;99.90
61807;DHT22;47726;52.766;6.606;2023-05-10T11:49:57;16.20;99.90
61807;DHT22;47726;52.766;6.606;2023-05-10T11:52:23;16.10;99.90
61807;DHT22;47726;52.766;6.606;2023-05-10T11:54:53;16.10;99.90
61807;DHT22;47726;52.766;6.606;2023-05-10T11:57:20;16.10;99.90
61807;DHT22;47726;52.766;6.606;2023-05-10T11:59:46;16.00;99.90
61807;DHT22;47726;52.766;6.606;2023-05-10T12:02:13;16.00;99.90
61807;DHT22;47726;52.766;6.606;2023-05-10T12:04:39;16.00;99.90
61807;DHT22;47726;52.766;6.606;2023-05-10T12:07:05;16.00;99.90
61807;DHT22;47726;52.766;6.606;2023-05-10T12:09:31;16.00;99.90
61807;DHT22;47726;52.766;6.606;2023-05-10T12:11:56;16.00;99.90
61807;DHT22;47726;52.766;6.606;2023-05-10T12:14:22;16.00;99.90
61807;DHT22;47726;52.766;6.606;2023-05-10T12:16:49;16.00;99.90
61807;DHT22;47726;52.766;6.606;2023-05-10T12:19:19;16.00;99.90
61807;DHT22;47726;52.766;6.606;2023-05-10T12:21:45;16.00;99.90
61807;DHT22;47726;52.766;6.606;2023-05-10T12:24:11;16.00;99.90
61807;DHT22;47726;52.766;6.606;2023-05-10T12:26:37;16.00;99.90
61807;DHT22;47726;52.766;6.606;2023-05-10T12:29:19;16.00;99.90
61807;DHT22;47726;52.766;6.606;2023-05-10T12:31:55;16.00;99.90
61807;DHT22;47726;52.766;6.606;2023-05-10T12:34:30;16.00;99.90
61807;DHT22;47726;52.766;6.606;2023-05-10T12:36:56;16.10;99.90
61807;DHT22;47726;52.766;6.606;2023-05-10T12:39:22;16.00;99.90
61807;DHT22;47726;52.766;6.606;2023-05-10T12:41:48;16.00;99.90
61807;DHT22;47726;52.766;6.606;2023-05-10T12:44:14;16.00;99.90
61807;DHT22;47726;52.766;6.606;2023-05-10T12:46:39;16.10;99.90
61807;DHT22;47726;52.766;6.606;2023-05-10T12:49:05;16.10;99.90
61807;DHT22;47726;52.766;6.606;2023-05-10T12:51:31;16.20;99.90
61807;DHT22;47726;52.766;6.606;2023-05-10T12:53:56;16.20;99.90
61807;DHT22;47726;52.766;6.606;2023-05-10T12:56:22;16.20;99.90
61807;DHT22;47726;52.766;6.606;2023-05-10T12:58:47;16.30;99.90
61807;DHT22;47726;52.766;6.606;2023-05-10T13:01:14;16.30;99.90
61807;DHT22;47726;52.766;6.606;2023-05-10T13:03:40;16.30;99.90
61807;DHT22;47726;52.766;6.606;2023-05-10T13:06:05;16.30;99.90
61807;DHT22;47726;52.766;6.606;2023-05-10T13:08:32;16.30;99.90
61807;DHT22;47726;52.766;6.606;2023-05-10T13:11:02;16.30;99.90
61807;DHT22;47726;52.766;6.606;2023-05-10T13:13:27;16.40;99.90
61807;DHT22;47726;52.766;6.606;2023-05-10T13:15:53;16.40;99.90
61807;DHT22;47726;52.766;6.606;2023-05-10T13:18:19;16.40;99.90
61807;DHT22;47726;52.766;6.606;2023-05-10T13:20:44;16.40;99.90
61807;DHT22;47726;52.766;6.606;2023-05-10T13:23:10;16.40;99.90
61807;DHT22;47726;52.766;6.606;2023-05-10T13:25:36;16.40;99.90
61807;DHT22;47726;52.766;6.606;2023-05-10T13:28:02;16.40;99.90
61807;DHT22;47726;52.766;6.606;2023-05-10T13:30:27;16.50;99.90
61807;DHT22;47726;52.766;6.606;2023-05-10T13:32:54;16.50;99.90
61807;DHT22;47726;52.766;6.606;2023-05-10T13:35:20;16.40;99.90
61807;DHT22;47726;52.766;6.606;2023-05-10T13:37:45;16.40;99.90
61807;DHT22;47726;52.766;6.606;2023-05-10T13:40:11;16.30;99.90
61807;DHT22;47726;52.766;6.606;2023-05-10T13:42:37;16.30;99.90
61807;DHT22;47726;52.766;6.606;2023-05-10T13:45:03;16.30;99.90
61807;DHT22;47726;52.766;6.606;2023-05-10T13:47:28;16.30;99.90
61807;DHT22;47726;52.766;6.606;2023-05-10T13:49:54;16.30;99.90
61807;DHT22;47726;52.766;6.606;2023-05-10T13:52:20;16.30;99.90
61807;DHT22;47726;52.766;6.606;2023-05-10T13:54:45;16.30;99.90
61807;DHT22;47726;52.766;6.606;2023-05-10T13:57:11;16.30;99.90
61807;DHT22;47726;52.766;6.606;2023-05-10T13:59:39;16.30;99.90
61807;DHT22;47726;52.766;6.606;2023-05-10T14:02:05;16.30;99.90
61807;DHT22;47726;52.766;6.606;2023-05-10T14:04:30;16.30;99.90
61807;DHT22;47726;52.766;6.606;2023-05-10T14:06:57;16.30;99.90
61807;DHT22;47726;52.766;6.606;2023-05-10T14:09:22;16.30;99.90
61807;DHT22;47726;52.766;6.606;2023-05-10T14:11:48;16.30;99.90
61807;DHT22;47726;52.766;6.606;2023-05-10T14:14:13;16.30;99.90
61807;DHT22;47726;52.766;6.606;2023-05-10T14:16:43;16.40;99.90
61807;DHT22;47726;52.766;6.606;2023-05-10T14:19:09;16.40;99.90
61807;DHT22;47726;52.766;6.606;2023-05-10T14:21:35;16.40;99.90
61807;DHT22;47726;52.766;6.606;2023-05-10T14:24:01;16.50;99.90
61807;DHT22;47726;52.766;6.606;2023-05-10T14:26:27;16.50;99.90
61807;DHT22;47726;52.766;6.606;2023-05-10T14:28:52;16.50;99.90
61807;DHT22;47726;52.766;6.606;2023-05-10T14:31:18;16.50;99.90
61807;DHT22;47726;52.766;6.606;2023-05-10T14:33:46;16.60;99.90
61807;DHT22;47726;52.766;6.606;2023-05-10T14:36:12;16.50;99.90
61807;DHT22;47726;52.766;6.606;2023-05-10T14:38:39;16.60;99.90
61807;DHT22;47726;52.766;6.606;2023-05-10T14:41:05;16.50;99.90
61807;DHT22;47726;52.766;6.606;2023-05-10T14:43:30;16.50;99.90
61807;DHT22;47726;52.766;6.606;2023-05-10T14:45:56;16.50;99.90
61807;DHT22;47726;52.766;6.606;2023-05-10T14:48:22;16.60;99.90
61807;DHT22;47726;52.766;6.606;2023-05-10T14:50:47;16.60;99.90
61807;DHT22;47726;52.766;6.606;2023-05-10T14:53:15;16.50;99.90
61807;DHT22;47726;52.766;6.606;2023-05-10T14:55:40;16.50;99.90
61807;DHT22;47726;52.766;6.606;2023-05-10T14:58:06;16.60;99.90
61807;DHT22;47726;52.766;6.606;2023-05-10T15:00:32;16.60;99.90
61807;DHT22;47726;52.766;6.606;2023-05-10T15:02:57;16.60;99.90
61807;DHT22;47726;52.766;6.606;2023-05-10T15:05:23;16.60;99.90
61807;DHT22;47726;52.766;6.606;2023-05-10T15:07:49;16.60;99.90
61807;DHT22;47726;52.766;6.606;2023-05-10T15:10:15;16.60;99.90
61807;DHT22;47726;52.766;6.606;2023-05-10T15:12:40;16.50;99.90
61807;DHT22;47726;52.766;6.606;2023-05-10T15:15:07;16.50;99.90
61807;DHT22;47726;52.766;6.606;2023-05-10T15:17:33;16.50;99.90
61807;DHT22;47726;52.766;6.606;2023-05-10T15:19:58;16.40;99.90
61807;DHT22;47726;52.766;6.606;2023-05-10T15:22:24;16.40;99.90
61807;DHT22;47726;52.766;6.606;2023-05-10T15:24:50;16.40;99.90
61807;DHT22;47726;52.766;6.606;2023-05-10T15:27:15;16.40;99.90
61807;DHT22;47726;52.766;6.606;2023-05-10T15:29:41;16.40;99.90
61807;DHT22;47726;52.766;6.606;2023-05-10T15:32:07;16.30;99.90
61807;DHT22;47726;52.766;6.606;2023-05-10T15:34:32;16.40;99.90
61807;DHT22;47726;52.766;6.606;2023-05-10T15:36:58;16.40;99.90
61807;DHT22;47726;52.766;6.606;2023-05-10T15:39:24;16.30;99.90
61807;DHT22;47726;52.766;6.606;2023-05-10T15:41:50;16.40;99.90
61807;DHT22;47726;52.766;6.606;2023-05-10T15:44:16;16.40;99.90
61807;DHT22;47726;52.766;6.606;2023-05-10T15:46:42;16.40;99.90